sensor_id;sensor_type;location;lat;lon;timestamp;P1;durP1;ratioP1;P2;durP2;ratioP2
53644;SDS011;39547;45.554;12.068;2023-05-20T00:05:22;15.02;;;6.70;;
53644;SDS011;39547;45.554;12.068;2023-05-20T00:11:23;14.20;;;6.20;;
53644;SDS011;39547;45.554;12.068;2023-05-20T00:17:25;13.85;;;5.82;;
53644;SDS011;39547;45.554;12.068;2023-05-20T00:23:28;15.15;;;6.55;;
53644;SDS011;39547;45.554;12.068;2023-05-20T00:29:29;13.75;;;6.03;;
53644;SDS011;39547;45.554;12.068;2023-05-20T00:35:31;15.00;;;6.15;;
53644;SDS011;39547;45.554;12.068;2023-05-20T00:41:33;13.98;;;6.10;;
53644;SDS011;39547;45.554;12.068;2023-05-20T00:47:35;14.27;;;6.65;;
53644;SDS011;39547;45.554;12.068;2023-05-20T00:53:36;14.20;;;6.63;;
53644;SDS011;39547;45.554;12.068;2023-05-20T00:59:39;14.75;;;6.85;;
53644;SDS011;39547;45.554;12.068;2023-05-20T01:05:41;14.63;;;6.63;;
53644;SDS011;39547;45.554;12.068;2023-05-20T01:18:05;14.55;;;6.70;;
53644;SDS011;39547;45.554;12.068;2023-05-20T01:24:10;14.60;;;6.63;;
53644;SDS011;39547;45.554;12.068;2023-05-20T01:30:12;14.38;;;6.70;;
53644;SDS011;39547;45.554;12.068;2023-05-20T01:36:14;14.30;;;6.60;;
53644;SDS011;39547;45.554;12.068;2023-05-20T01:42:15;15.48;;;6.78;;
53644;SDS011;39547;45.554;12.068;2023-05-20T01:48:19;14.05;;;6.40;;
53644;SDS011;39547;45.554;12.068;2023-05-20T01:54:20;14.48;;;6.65;;
53644;SDS011;39547;45.554;12.068;2023-05-20T02:00:22;14.70;;;6.80;;
53644;SDS011;39547;45.554;12.068;2023-05-20T02:06:23;14.80;;;7.03;;
53644;SDS011;39547;45.554;12.068;2023-05-20T02:12:25;14.35;;;6.55;;
53644;SDS011;39547;45.554;12.068;2023-05-20T02:18:28;14.95;;;6.68;;
53644;SDS011;39547;45.554;12.068;2023-05-20T02:24:29;14.45;;;6.53;;
53644;SDS011;39547;45.554;12.068;2023-05-20T02:30:30;15.10;;;7.10;;
53644;SDS011;39547;45.554;12.068;2023-05-20T02:36:32;14.50;;;6.70;;
53644;SDS011;39547;45.554;12.068;2023-05-20T02:42:35;15.38;;;6.32;;
53644;SDS011;39547;45.554;12.068;2023-05-20T02:48:37;15.10;;;6.70;;
53644;SDS011;39547;45.554;12.068;2023-05-20T02:54:38;14.02;;;6.25;;
53644;SDS011;39547;45.554;12.068;2023-05-20T03:00:41;17.50;;;6.75;;
53644;SDS011;39547;45.554;12.068;2023-05-20T03:06:42;14.68;;;6.50;;
53644;SDS011;39547;45.554;12.068;2023-05-20T03:12:46;15.65;;;6.88;;
53644;SDS011;39547;45.554;12.068;2023-05-20T03:18:47;15.02;;;7.13;;
53644;SDS011;39547;45.554;12.068;2023-05-20T03:24:49;15.15;;;7.03;;
53644;SDS011;39547;45.554;12.068;2023-05-20T03:30:52;14.57;;;6.47;;
53644;SDS011;39547;45.554;12.068;2023-05-20T03:36:54;14.57;;;6.63;;
53644;SDS011;39547;45.554;12.068;2023-05-20T03:42:55;15.40;;;6.80;;
53644;SDS011;39547;45.554;12.068;2023-05-20T03:48:58;15.80;;;6.65;;
53644;SDS011;39547;45.554;12.068;2023-05-20T03:55:01;16.20;;;7.03;;
53644;SDS011;39547;45.554;12.068;2023-05-20T04:01:04;15.20;;;6.25;;
53644;SDS011;39547;45.554;12.068;2023-05-20T04:07:05;15.57;;;6.95;;
53644;SDS011;39547;45.554;12.068;2023-05-20T04:13:08;14.90;;;6.80;;
53644;SDS011;39547;45.554;12.068;2023-05-20T04:19:11;15.63;;;6.45;;
53644;SDS011;39547;45.554;12.068;2023-05-20T04:25:12;14.18;;;5.97;;
53644;SDS011;39547;45.554;12.068;2023-05-20T04:31:14;15.18;;;6.40;;
53644;SDS011;39547;45.554;12.068;2023-05-20T04:37:17;14.13;;;6.22;;
53644;SDS011;39547;45.554;12.068;2023-05-20T04:43:18;15.13;;;6.50;;
53644;SDS011;39547;45.554;12.068;2023-05-20T04:49:20;15.15;;;6.63;;
53644;SDS011;39547;45.554;12.068;2023-05-20T04:55:21;13.75;;;5.93;;
53644;SDS011;39547;45.554;12.068;2023-05-20T05:07:27;13.13;;;5.53;;
53644;SDS011;39547;45.554;12.068;2023-05-20T05:13:29;13.57;;;5.40;;
53644;SDS011;39547;45.554;12.068;2023-05-20T05:19:30;14.35;;;5.90;;
53644;SDS011;39547;45.554;12.068;2023-05-20T05:25:32;14.00;;;5.65;;
53644;SDS011;39547;45.554;12.068;2023-05-20T05:31:34;13.45;;;5.60;;
53644;SDS011;39547;45.554;12.068;2023-05-20T05:37:35;14.68;;;5.50;;
53644;SDS011;39547;45.554;12.068;2023-05-20T05:43:38;13.63;;;5.72;;
53644;SDS011;39547;45.554;12.068;2023-05-20T05:49:41;13.02;;;5.45;;
53644;SDS011;39547;45.554;12.068;2023-05-20T05:55:44;13.02;;;5.57;;
53644;SDS011;39547;45.554;12.068;2023-05-20T06:01:47;14.35;;;6.20;;
53644;SDS011;39547;45.554;12.068;2023-05-20T06:07:49;14.10;;;5.88;;
53644;SDS011;39547;45.554;12.068;2023-05-20T06:13:51;13.60;;;6.30;;
53644;SDS011;39547;45.554;12.068;2023-05-20T06:19:52;13.70;;;6.20;;
53644;SDS011;39547;45.554;12.068;2023-05-20T06:25:57;13.93;;;6.45;;
53644;SDS011;39547;45.554;12.068;2023-05-20T06:31:59;14.85;;;7.05;;
53644;SDS011;39547;45.554;12.068;2023-05-20T06:38:02;14.90;;;6.90;;
53644;SDS011;39547;45.554;12.068;2023-05-20T06:44:04;14.10;;;6.60;;
53644;SDS011;39547;45.554;12.068;2023-05-20T06:50:33;14.43;;;7.20;;
53644;SDS011;39547;45.554;12.068;2023-05-20T06:56:34;15.13;;;6.82;;
53644;SDS011;39547;45.554;12.068;2023-05-20T07:02:36;17.30;;;7.28;;
53644;SDS011;39547;45.554;12.068;2023-05-20T07:08:38;15.52;;;7.35;;
53644;SDS011;39547;45.554;12.068;2023-05-20T07:14:41;16.27;;;7.90;;
53644;SDS011;39547;45.554;12.068;2023-05-20T07:20:43;15.80;;;7.40;;
53644;SDS011;39547;45.554;12.068;2023-05-20T07:26:53;16.85;;;7.57;;
53644;SDS011;39547;45.554;12.068;2023-05-20T07:32:55;15.35;;;7.80;;
53644;SDS011;39547;45.554;12.068;2023-05-20T07:38:56;15.35;;;7.82;;
53644;SDS011;39547;45.554;12.068;2023-05-20T07:44:58;16.10;;;7.70;;
53644;SDS011;39547;45.554;12.068;2023-05-20T07:51:00;14.98;;;7.43;;
53644;SDS011;39547;45.554;12.068;2023-05-20T07:57:02;16.30;;;7.95;;
53644;SDS011;39547;45.554;12.068;2023-05-20T08:03:05;17.38;;;8.30;;
53644;SDS011;39547;45.554;12.068;2023-05-20T08:09:20;15.75;;;8.45;;
53644;SDS011;39547;45.554;12.068;2023-05-20T08:15:25;17.08;;;8.13;;
53644;SDS011;39547;45.554;12.068;2023-05-20T08:21:27;16.92;;;8.43;;
53644;SDS011;39547;45.554;12.068;2023-05-20T08:27:28;15.35;;;8.05;;
53644;SDS011;39547;45.554;12.068;2023-05-20T08:33:31;16.83;;;8.77;;
53644;SDS011;39547;45.554;12.068;2023-05-20T08:39:32;16.42;;;8.88;;
53644;SDS011;39547;45.554;12.068;2023-05-20T08:45:37;17.08;;;8.95;;
53644;SDS011;39547;45.554;12.068;2023-05-20T08:51:44;16.95;;;9.23;;
53644;SDS011;39547;45.554;12.068;2023-05-20T08:57:50;17.60;;;9.02;;
53644;SDS011;39547;45.554;12.068;2023-05-20T09:03:54;19.40;;;9.32;;
53644;SDS011;39547;45.554;12.068;2023-05-20T09:09:56;16.83;;;9.45;;
53644;SDS011;39547;45.554;12.068;2023-05-20T09:15:58;16.65;;;9.32;;
53644;SDS011;39547;45.554;12.068;2023-05-20T09:22:02;18.35;;;10.20;;
53644;SDS011;39547;45.554;12.068;2023-05-20T09:28:04;18.55;;;10.25;;
53644;SDS011;39547;45.554;12.068;2023-05-20T09:34:07;18.20;;;9.70;;
53644;SDS011;39547;45.554;12.068;2023-05-20T09:40:10;19.33;;;11.35;;
53644;SDS011;39547;45.554;12.068;2023-05-20T09:52:16;19.73;;;11.35;;
53644;SDS011;39547;45.554;12.068;2023-05-20T09:58:18;20.67;;;12.15;;
53644;SDS011;39547;45.554;12.068;2023-05-20T10:04:20;20.98;;;12.77;;
53644;SDS011;39547;45.554;12.068;2023-05-20T10:10:26;20.58;;;12.57;;
53644;SDS011;39547;45.554;12.068;2023-05-20T10:23:27;20.92;;;12.60;;
53644;SDS011;39547;45.554;12.068;2023-05-20T10:29:40;21.48;;;13.13;;
53644;SDS011;39547;45.554;12.068;2023-05-20T10:35:48;21.58;;;13.43;;
53644;SDS011;39547;45.554;12.068;2023-05-20T10:41:51;21.23;;;13.02;;
53644;SDS011;39547;45.554;12.068;2023-05-20T10:47:53;20.15;;;12.75;;
53644;SDS011;39547;45.554;12.068;2023-05-20T10:53:56;21.25;;;12.45;;
53644;SDS011;39547;45.554;12.068;2023-05-20T10:59:58;21.30;;;13.23;;
53644;SDS011;39547;45.554;12.068;2023-05-20T11:06:00;20.38;;;12.57;;
53644;SDS011;39547;45.554;12.068;2023-05-20T11:12:02;21.65;;;13.13;;
53644;SDS011;39547;45.554;12.068;2023-05-20T11:18:04;21.23;;;12.85;;
53644;SDS011;39547;45.554;12.068;2023-05-20T11:24:05;21.80;;;13.68;;
53644;SDS011;39547;45.554;12.068;2023-05-20T11:30:07;21.40;;;12.52;;
53644;SDS011;39547;45.554;12.068;2023-05-20T11:36:11;20.40;;;12.38;;
53644;SDS011;39547;45.554;12.068;2023-05-20T11:42:14;19.00;;;12.02;;
53644;SDS011;39547;45.554;12.068;2023-05-20T11:48:17;21.15;;;11.98;;
53644;SDS011;39547;45.554;12.068;2023-05-20T11:54:20;19.20;;;11.67;;
53644;SDS011;39547;45.554;12.068;2023-05-20T12:00:23;20.38;;;12.13;;
53644;SDS011;39547;45.554;12.068;2023-05-20T12:06:25;21.17;;;12.52;;
53644;SDS011;39547;45.554;12.068;2023-05-20T12:12:26;20.08;;;12.30;;
53644;SDS011;39547;45.554;12.068;2023-05-20T12:18:27;19.73;;;12.38;;
53644;SDS011;39547;45.554;12.068;2023-05-20T12:24:29;19.75;;;12.00;;
53644;SDS011;39547;45.554;12.068;2023-05-20T12:30:30;19.42;;;12.15;;
53644;SDS011;39547;45.554;12.068;2023-05-20T12:36:32;19.65;;;12.50;;
53644;SDS011;39547;45.554;12.068;2023-05-20T12:42:42;19.85;;;12.48;;
53644;SDS011;39547;45.554;12.068;2023-05-20T12:48:44;21.40;;;12.60;;
53644;SDS011;39547;45.554;12.068;2023-05-20T12:54:46;18.65;;;11.38;;
53644;SDS011;39547;45.554;12.068;2023-05-20T13:00:47;18.00;;;10.77;;
53644;SDS011;39547;45.554;12.068;2023-05-20T13:06:49;19.65;;;11.70;;
53644;SDS011;39547;45.554;12.068;2023-05-20T13:12:50;19.65;;;11.93;;
53644;SDS011;39547;45.554;12.068;2023-05-20T13:18:52;18.73;;;11.43;;
53644;SDS011;39547;45.554;12.068;2023-05-20T13:24:54;21.23;;;12.40;;
53644;SDS011;39547;45.554;12.068;2023-05-20T13:30:55;22.40;;;13.20;;
53644;SDS011;39547;45.554;12.068;2023-05-20T13:36:57;20.20;;;12.48;;
53644;SDS011;39547;45.554;12.068;2023-05-20T13:42:58;20.33;;;13.02;;
53644;SDS011;39547;45.554;12.068;2023-05-20T13:48:59;20.08;;;12.95;;
53644;SDS011;39547;45.554;12.068;2023-05-20T13:55:01;20.60;;;13.10;;
53644;SDS011;39547;45.554;12.068;2023-05-20T14:01:03;20.75;;;12.57;;
53644;SDS011;39547;45.554;12.068;2023-05-20T14:07:05;20.23;;;12.15;;
53644;SDS011;39547;45.554;12.068;2023-05-20T14:13:07;20.25;;;12.20;;
53644;SDS011;39547;45.554;12.068;2023-05-20T14:19:10;19.85;;;12.20;;
53644;SDS011;39547;45.554;12.068;2023-05-20T14:25:11;18.65;;;11.45;;
53644;SDS011;39547;45.554;12.068;2023-05-20T14:31:13;20.13;;;12.30;;
53644;SDS011;39547;45.554;12.068;2023-05-20T14:37:14;19.70;;;11.32;;
53644;SDS011;39547;45.554;12.068;2023-05-20T14:43:16;21.00;;;11.63;;
53644;SDS011;39547;45.554;12.068;2023-05-20T14:49:18;18.48;;;11.25;;
53644;SDS011;39547;45.554;12.068;2023-05-20T14:55:19;19.30;;;11.70;;
53644;SDS011;39547;45.554;12.068;2023-05-20T15:01:21;19.17;;;11.68;;
53644;SDS011;39547;45.554;12.068;2023-05-20T15:07:22;18.50;;;11.10;;
53644;SDS011;39547;45.554;12.068;2023-05-20T15:13:23;20.58;;;11.60;;
53644;SDS011;39547;45.554;12.068;2023-05-20T15:19:25;19.05;;;11.68;;
53644;SDS011;39547;45.554;12.068;2023-05-20T15:25:26;19.17;;;11.65;;
53644;SDS011;39547;45.554;12.068;2023-05-20T15:31:28;20.05;;;11.75;;
53644;SDS011;39547;45.554;12.068;2023-05-20T15:37:29;17.92;;;10.88;;
53644;SDS011;39547;45.554;12.068;2023-05-20T15:43:31;19.52;;;11.57;;
53644;SDS011;39547;45.554;12.068;2023-05-20T15:49:32;20.10;;;12.57;;
53644;SDS011;39547;45.554;12.068;2023-05-20T15:55:34;19.83;;;12.60;;
53644;SDS011;39547;45.554;12.068;2023-05-20T16:01:35;19.45;;;11.95;;
53644;SDS011;39547;45.554;12.068;2023-05-20T16:07:37;22.08;;;13.00;;
53644;SDS011;39547;45.554;12.068;2023-05-20T16:13:38;20.92;;;13.63;;
53644;SDS011;39547;45.554;12.068;2023-05-20T16:19:40;22.20;;;14.00;;
53644;SDS011;39547;45.554;12.068;2023-05-20T16:25:41;21.75;;;13.73;;
53644;SDS011;39547;45.554;12.068;2023-05-20T16:31:43;23.88;;;14.63;;
53644;SDS011;39547;45.554;12.068;2023-05-20T16:37:46;23.57;;;15.10;;
53644;SDS011;39547;45.554;12.068;2023-05-20T16:43:47;24.05;;;15.57;;
53644;SDS011;39547;45.554;12.068;2023-05-20T16:49:49;24.67;;;16.15;;
53644;SDS011;39547;45.554;12.068;2023-05-20T16:55:50;23.88;;;15.38;;
53644;SDS011;39547;45.554;12.068;2023-05-20T17:01:52;24.75;;;15.38;;
53644;SDS011;39547;45.554;12.068;2023-05-20T17:07:53;23.75;;;15.23;;
53644;SDS011;39547;45.554;12.068;2023-05-20T17:13:58;23.10;;;14.60;;
53644;SDS011;39547;45.554;12.068;2023-05-20T17:20:00;22.83;;;14.52;;
53644;SDS011;39547;45.554;12.068;2023-05-20T17:26:02;23.05;;;14.85;;
53644;SDS011;39547;45.554;12.068;2023-05-20T17:32:03;25.38;;;15.65;;
53644;SDS011;39547;45.554;12.068;2023-05-20T17:38:05;22.13;;;14.27;;
53644;SDS011;39547;45.554;12.068;2023-05-20T17:44:06;23.98;;;15.32;;
53644;SDS011;39547;45.554;12.068;2023-05-20T17:50:08;26.08;;;16.27;;
53644;SDS011;39547;45.554;12.068;2023-05-20T17:56:09;25.88;;;16.38;;
53644;SDS011;39547;45.554;12.068;2023-05-20T18:02:11;24.95;;;15.63;;
53644;SDS011;39547;45.554;12.068;2023-05-20T18:08:12;28.83;;;17.02;;
53644;SDS011;39547;45.554;12.068;2023-05-20T18:14:14;28.00;;;16.92;;
53644;SDS011;39547;45.554;12.068;2023-05-20T18:20:18;28.92;;;17.85;;
53644;SDS011;39547;45.554;12.068;2023-05-20T18:26:19;28.20;;;17.38;;
53644;SDS011;39547;45.554;12.068;2023-05-20T18:32:21;29.33;;;17.88;;
53644;SDS011;39547;45.554;12.068;2023-05-20T18:38:26;29.40;;;17.85;;
53644;SDS011;39547;45.554;12.068;2023-05-20T18:44:27;29.25;;;17.48;;
53644;SDS011;39547;45.554;12.068;2023-05-20T18:50:29;29.33;;;18.33;;
53644;SDS011;39547;45.554;12.068;2023-05-20T18:56:31;28.27;;;17.92;;
53644;SDS011;39547;45.554;12.068;2023-05-20T19:02:33;29.13;;;18.40;;
53644;SDS011;39547;45.554;12.068;2023-05-20T19:08:34;31.25;;;18.88;;
53644;SDS011;39547;45.554;12.068;2023-05-20T19:14:36;29.23;;;19.25;;
53644;SDS011;39547;45.554;12.068;2023-05-20T19:20:37;33.22;;;19.85;;
53644;SDS011;39547;45.554;12.068;2023-05-20T19:26:38;33.55;;;19.90;;
53644;SDS011;39547;45.554;12.068;2023-05-20T19:32:40;30.92;;;19.73;;
53644;SDS011;39547;45.554;12.068;2023-05-20T19:38:41;29.92;;;19.55;;
53644;SDS011;39547;45.554;12.068;2023-05-20T19:44:44;32.47;;;19.92;;
53644;SDS011;39547;45.554;12.068;2023-05-20T19:50:46;31.88;;;20.48;;
53644;SDS011;39547;45.554;12.068;2023-05-20T19:56:47;32.55;;;19.50;;
53644;SDS011;39547;45.554;12.068;2023-05-20T20:02:49;31.05;;;18.90;;
53644;SDS011;39547;45.554;12.068;2023-05-20T20:08:50;30.10;;;19.75;;
53644;SDS011;39547;45.554;12.068;2023-05-20T20:14:52;31.75;;;19.27;;
53644;SDS011;39547;45.554;12.068;2023-05-20T20:20:53;32.58;;;19.08;;
53644;SDS011;39547;45.554;12.068;2023-05-20T20:26:55;35.35;;;22.27;;
53644;SDS011;39547;45.554;12.068;2023-05-20T20:32:57;34.35;;;21.35;;
53644;SDS011;39547;45.554;12.068;2023-05-20T20:39:02;35.45;;;21.90;;
53644;SDS011;39547;45.554;12.068;2023-05-20T20:45:06;37.20;;;21.98;;
53644;SDS011;39547;45.554;12.068;2023-05-20T20:51:08;34.05;;;21.35;;
53644;SDS011;39547;45.554;12.068;2023-05-20T20:57:10;31.42;;;19.30;;
53644;SDS011;39547;45.554;12.068;2023-05-20T21:03:11;33.00;;;20.13;;
53644;SDS011;39547;45.554;12.068;2023-05-20T21:09:13;33.45;;;21.33;;
53644;SDS011;39547;45.554;12.068;2023-05-20T21:15:15;33.70;;;21.48;;
53644;SDS011;39547;45.554;12.068;2023-05-20T21:21:16;32.63;;;20.90;;
53644;SDS011;39547;45.554;12.068;2023-05-20T21:27:20;30.60;;;19.17;;
53644;SDS011;39547;45.554;12.068;2023-05-20T21:33:21;28.85;;;18.92;;
53644;SDS011;39547;45.554;12.068;2023-05-20T21:39:23;29.35;;;19.33;;
53644;SDS011;39547;45.554;12.068;2023-05-20T21:45:24;29.48;;;18.90;;
53644;SDS011;39547;45.554;12.068;2023-05-20T21:51:26;27.00;;;18.08;;
53644;SDS011;39547;45.554;12.068;2023-05-20T21:57:27;27.27;;;17.60;;
53644;SDS011;39547;45.554;12.068;2023-05-20T22:03:29;26.67;;;16.85;;
53644;SDS011;39547;45.554;12.068;2023-05-20T22:09:32;26.05;;;16.63;;
53644;SDS011;39547;45.554;12.068;2023-05-20T22:15:33;24.23;;;16.23;;
53644;SDS011;39547;45.554;12.068;2023-05-20T22:21:35;24.95;;;15.80;;
53644;SDS011;39547;45.554;12.068;2023-05-20T22:27:36;24.95;;;15.90;;
53644;SDS011;39547;45.554;12.068;2023-05-20T22:33:38;24.65;;;15.10;;
53644;SDS011;39547;45.554;12.068;2023-05-20T22:39:41;22.67;;;14.55;;
53644;SDS011;39547;45.554;12.068;2023-05-20T22:45:42;21.73;;;14.18;;
53644;SDS011;39547;45.554;12.068;2023-05-20T22:51:44;23.15;;;13.82;;
53644;SDS011;39547;45.554;12.068;2023-05-20T22:57:45;20.80;;;13.32;;
53644;SDS011;39547;45.554;12.068;2023-05-20T23:03:46;20.55;;;12.85;;
53644;SDS011;39547;45.554;12.068;2023-05-20T23:09:48;20.55;;;12.60;;
53644;SDS011;39547;45.554;12.068;2023-05-20T23:15:49;20.00;;;11.75;;
53644;SDS011;39547;45.554;12.068;2023-05-20T23:21:50;19.63;;;11.50;;
53644;SDS011;39547;45.554;12.068;2023-05-20T23:27:52;20.13;;;12.50;;
53644;SDS011;39547;45.554;12.068;2023-05-20T23:33:53;20.55;;;12.95;;
53644;SDS011;39547;45.554;12.068;2023-05-20T23:39:57;19.85;;;12.88;;
53644;SDS011;39547;45.554;12.068;2023-05-20T23:45:58;20.02;;;12.30;;
53644;SDS011;39547;45.554;12.068;2023-05-20T23:52:00;21.77;;;12.85;;
53644;SDS011;39547;45.554;12.068;2023-05-20T23:58:01;19.90;;;12.55;;
